Current | Forecast
Updated: 10:00 AM JST on April 23, 2018
Observed at Komatsu AB, Japan
Temperature 66°F
Humidity 60%
Dew Point 52°F
Wind North at 12 mph
Pressure 30.09 in (Steady)
Conditions Mostly Cloudy
Visibility 4.3 miles
UV 4 out of 16
Clouds (FEW) : 18000 ft
Mostly Cloudy (BKN) : 23000 ft
Yesterday's Maximum 73°F
Yesterday's Minimum 54°F approx.
Yesterday's Heating Degree Days 2 approx.
Sunrise5:12 AM JST
Sunset6:35 PM JST
Moon Rise11:25 AM JST
Moon Set12:55 AM JST
Moon PhaseMoon Phase
First Quarter
Raw METARMETAR RJNK 230100Z 36010KT 7000 FEW180 BKN230 19/11 Q1019


Monday
. High: 71° F.
Tuesday
. High: 66° F.
Wednesday
. High: 62° F.
Thursday
. High: 68° F.
Friday
. High: 69° F.
Saturday
. High: 66° F.
Sunday
. High: 66° F.
Monday
. High: 66° F.

Units: English | Metric

Find the Weather for any City, State or Zipcode, or Country:

U.S. State List | Severe Weather | Tropical Storms | Ski Conditions
United States | Canada | Central America | South America | Asia | Europe | Australia | Africa | Islands

Weather Underground

© Copyright 2018
The Weather Company, LLC